Airfield :
LOGIN :

Register | Disclaimer

   EN    FR    IT 

 










Legend :    VFR   Marginal VFR   IFR   Intensive IFR   Very Intensive IFR
Visi :
Ceiling :
>= 8 km
>= 3000ft
5 to 8 km
1000 to 3000 ft
1500m to 5 km
500 to 1000 ft
800 to 1500m
200 to 500 ft
< 800m
< 200 ft
Symbols :   Thunderstorms  Fog  Heavy snow  Heavy precipitations  Wind > 20 kt
SIGMETs :     Misc.  Thunderstorms  Icing  Turbulence  Mountain Waves  Volcanic Ashes






- Airport Elevation : 313 ft
- IATA code : LEH


LFOH - Le Havre Octeville

CURRENT METAR :
  • 231400Z AUTO 26022KT 9999 OVC006 11/10 Q1022 TEMPO 2000 RADZ OVC004 BECMG 25025G35KT

EXPIRED METARs :
  • 231330Z AUTO 26024KT 9999 OVC009 12/10 Q1021 TEMPO 2000 RADZ OVC004 BECMG 25025G35KT
  • 231300Z AUTO 25024G35KT 9999 OVC011 12/10 Q1021 TEMPO 2000 RADZ OVC004
  • 231230Z AUTO 25022KT 9999 OVC011 11/10 Q1021 TEMPO 2000 RADZ OVC004 BECMG 25025G35KT
  • 231200Z AUTO 25024G35KT 9999 OVC011 12/10 Q1022 TEMPO 2000 RADZ OVC004
  • 231130Z AUTO 25023KT 9999 OVC011 11/10 Q1022 TEMPO 1500 RADZ OVC002 BECMG 22025G35KT

TAF TAF LFOH
Valid from the 23 at 12:00 until the 24 at 12:00 UTC


231100Z 2312/2412 25025G35KT 9999 OVC013
TEMPO 2312/2319 2000 RADZ OVC004
FM231900 28012KT 9999 BKN025
BECMG 2321/2323 22012KT OVC013
TEMPO 2323/2409 2000 DZRA OVC004
BECMG 2409/2412 23020G30KT
ATIS : +33 2 35 54 64 93



MET'MAP, your aeronautical weather chart ! - Copyright ORBIFLY December 2007 - Disclaimer

ORBIFLY MET'MAP TEAM :

Programming & Development : Alexandra Zaïnal
Concept & original design : Baudouin d'Aumeries
Assistance for programming : Marc-Olivier Méhu
Technical & hardware support : Manuel Goepfert

Contact : metmap@orbifly.com




SOURCES & CREDITS :

   NOAA